createdAt,value
2017-06-03T00:00:31.514Z,18.2
2017-06-03T00:01:40.470Z,18.23
2017-06-03T00:02:49.683Z,18.23
2017-06-03T00:03:58.644Z,18.18
2017-06-03T00:05:07.605Z,18.2
2017-06-03T00:06:16.564Z,18.12
2017-06-03T00:07:25.519Z,18.23
2017-06-03T00:08:34.724Z,18.14
2017-06-03T00:09:43.689Z,18.17
2017-06-03T00:10:52.643Z,18.15
2017-06-03T00:12:01.601Z,18.15
2017-06-03T00:13:10.556Z,18.2
2017-06-03T00:14:19.768Z,18.14
2017-06-03T00:15:28.728Z,18.1
2017-06-03T00:16:37.693Z,18.1
2017-06-03T00:17:46.648Z,18.03
2017-06-03T00:18:55.607Z,18
2017-06-03T00:20:04.820Z,18.03
2017-06-03T00:21:13.777Z,18.05
2017-06-03T00:22:22.739Z,18
2017-06-03T00:23:31.702Z,18.07
2017-06-03T00:24:40.660Z,18
2017-06-03T00:25:49.870Z,18.05
2017-06-03T00:26:58.827Z,17.97
2017-06-03T00:28:07.787Z,17.96
2017-06-03T00:29:16.745Z,17.92
2017-06-03T00:30:25.717Z,17.93
2017-06-03T00:31:34.922Z,17.93
2017-06-03T00:32:43.882Z,17.93
2017-06-03T00:33:52.838Z,17.86
2017-06-03T00:35:02.120Z,17.92
2017-06-03T00:36:11.080Z,17.89
2017-06-03T00:37:20.342Z,17.86
2017-06-03T00:38:29.302Z,17.78
2017-06-03T00:39:38.259Z,17.84
2017-06-03T00:40:47.220Z,17.86
2017-06-03T00:41:56.185Z,17.82
2017-06-03T00:43:05.416Z,17.87
2017-06-03T00:44:14.377Z,17.86
2017-06-03T00:45:23.341Z,17.84
2017-06-03T00:46:32.305Z,17.89
2017-06-03T00:47:41.264Z,17.86
2017-06-03T00:48:50.470Z,17.82
2017-06-03T00:49:59.430Z,17.78
2017-06-03T00:51:08.391Z,17.77
2017-06-03T00:52:17.349Z,17.75
2017-06-03T00:53:26.392Z,17.75
2017-06-03T00:54:35.688Z,17.72
2017-06-03T00:55:44.642Z,17.75
2017-06-03T00:56:53.606Z,17.74
2017-06-03T00:58:02.565Z,17.81
2017-06-03T00:59:11.525Z,17.77
2017-06-03T01:00:20.734Z,17.77
2017-06-03T01:01:29.692Z,17.71
2017-06-03T01:02:38.648Z,17.68
2017-06-03T01:03:47.604Z,17.68
2017-06-03T01:04:56.563Z,17.68
2017-06-03T01:06:05.770Z,17.72
2017-06-03T01:07:14.729Z,17.72
2017-06-03T01:08:23.776Z,17.75
2017-06-03T01:09:32.735Z,17.64
2017-06-03T01:10:41.715Z,17.68
2017-06-03T01:11:50.916Z,17.64
2017-06-03T01:12:59.870Z,17.63
2017-06-03T01:14:08.823Z,17.56
2017-06-03T01:15:17.780Z,17.58
2017-06-03T01:16:26.746Z,17.56
2017-06-03T01:17:35.957Z,17.52
2017-06-03T01:18:44.913Z,17.52
2017-06-03T01:19:53.870Z,17.54
2017-06-03T01:21:02.830Z,17.4
2017-06-03T01:22:11.788Z,17.4
2017-06-03T01:23:20.991Z,17.41
2017-06-03T01:24:30.275Z,17.44
2017-06-03T01:25:39.229Z,17.41
2017-06-03T01:26:48.186Z,17.48
2017-06-03T01:27:57.142Z,17.4
2017-06-03T01:29:06.350Z,17.44
2017-06-03T01:30:15.305Z,17.46
2017-06-03T01:31:24.264Z,17.41
2017-06-03T01:32:33.218Z,17.44
2017-06-03T01:33:42.174Z,17.44
2017-06-03T01:34:51.383Z,17.38
2017-06-03T01:36:00.431Z,17.34
2017-06-03T01:37:09.395Z,17.37
2017-06-03T01:38:18.353Z,17.34
2017-06-03T01:39:27.309Z,17.44
2017-06-03T01:40:36.520Z,17.33
2017-06-03T01:41:45.485Z,17.25
2017-06-03T01:42:54.529Z,17.25
2017-06-03T01:44:03.486Z,17.31
2017-06-03T01:45:12.778Z,17.28
2017-06-03T01:46:21.999Z,17.33
2017-06-03T01:47:30.954Z,17.36
2017-06-03T01:48:39.906Z,17.34
2017-06-03T01:49:48.859Z,17.36
2017-06-03T01:50:57.821Z,17.34
2017-06-03T01:52:07.025Z,17.38
2017-06-03T01:53:16.308Z,17.28
2017-06-03T01:54:25.266Z,17.31
2017-06-03T01:55:34.250Z,17.3
2017-06-03T01:56:43.210Z,17.28
2017-06-03T01:57:52.422Z,17.28
2017-06-03T01:59:01.376Z,17.34
2017-06-03T02:00:10.336Z,17.25
2017-06-03T02:01:19.297Z,17.34
2017-06-03T02:02:28.254Z,17.3
2017-06-03T02:03:37.462Z,17.34
2017-06-03T02:04:46.743Z,17.3
2017-06-03T02:05:55.700Z,17.26
2017-06-03T02:07:04.655Z,17.36
2017-06-03T02:08:13.611Z,17.34
2017-06-03T02:09:22.816Z,17.33
2017-06-03T02:10:31.780Z,17.3
2017-06-03T02:11:40.741Z,17.3
2017-06-03T02:12:49.698Z,17.28
2017-06-03T02:13:58.657Z,17.25
2017-06-03T02:15:07.859Z,17.31
2017-06-03T02:16:16.819Z,17.25
2017-06-03T02:17:25.771Z,17.34
2017-06-03T02:18:34.730Z,17.26
2017-06-03T02:19:43.698Z,17.34
2017-06-03T02:20:52.909Z,17.33
2017-06-03T02:22:01.874Z,17.25
2017-06-03T02:23:11.149Z,17.25
2017-06-03T02:24:20.103Z,17.23
2017-06-03T02:25:29.057Z,17.23
2017-06-03T02:26:38.264Z,17.28
2017-06-03T02:27:47.218Z,17.25
2017-06-03T02:28:56.178Z,17.25
2017-06-03T02:30:05.456Z,17.26
2017-06-03T02:31:14.427Z,17.25
2017-06-03T02:32:23.633Z,17.25
2017-06-03T02:33:32.593Z,17.28
2017-06-03T02:34:41.550Z,17.31
2017-06-03T02:35:50.533Z,17.28
2017-06-03T02:36:59.487Z,17.3
2017-06-03T02:38:08.698Z,17.33
2017-06-03T02:39:17.654Z,17.28
2017-06-03T02:40:26.618Z,17.31
2017-06-03T02:41:35.580Z,17.28
2017-06-03T02:42:44.541Z,17.3
2017-06-03T02:43:53.780Z,17.31
2017-06-03T02:45:02.744Z,17.31
2017-06-03T02:46:11.700Z,17.23
2017-06-03T02:47:20.752Z,17.22
2017-06-03T02:48:29.717Z,17.25
2017-06-03T02:49:38.928Z,17.25
2017-06-03T02:50:47.882Z,17.22
2017-06-03T02:51:56.838Z,17.15
2017-06-03T02:53:05.800Z,17.08
2017-06-03T02:54:14.752Z,17.18
2017-06-03T02:55:23.957Z,17.26
2017-06-03T02:56:32.917Z,17.14
2017-06-03T02:57:41.879Z,17.08
2017-06-03T02:58:50.835Z,17.16
2017-06-03T02:59:59.790Z,17.12
2017-06-03T03:01:09.001Z,17.18
2017-06-03T03:02:17.957Z,17.15
2017-06-03T03:03:26.931Z,17.15
2017-06-03T03:04:35.887Z,17.15
2017-06-03T03:05:44.841Z,17.16
2017-06-03T03:06:54.052Z,17.12
2017-06-03T03:08:03.011Z,17.15
2017-06-03T03:09:11.965Z,17.15
2017-06-03T03:10:20.920Z,17.16
2017-06-03T03:11:29.883Z,17.19
2017-06-03T03:12:39.086Z,17.16
2017-06-03T03:13:48.044Z,17.14
2017-06-03T03:14:56.998Z,17.07
2017-06-03T03:16:05.981Z,17.15
2017-06-03T03:17:14.935Z,17.18
2017-06-03T03:18:24.142Z,17.12
2017-06-03T03:19:33.102Z,17.16
2017-06-03T03:20:42.064Z,17.11
2017-06-03T03:21:51.022Z,17.15
2017-06-03T03:22:59.991Z,17.14
2017-06-03T03:24:09.215Z,17.12
2017-06-03T03:25:18.175Z,17.15
2017-06-03T03:26:27.131Z,17.11
2017-06-03T03:27:36.413Z,17.15
2017-06-03T03:28:45.374Z,17.15
2017-06-03T03:29:54.582Z,17.14
2017-06-03T03:31:03.544Z,17.12
2017-06-03T03:32:12.498Z,17.14
2017-06-03T03:33:21.476Z,17.04
2017-06-03T03:34:30.435Z,17.14
2017-06-03T03:35:39.639Z,17.11
2017-06-03T03:36:48.594Z,17.11
2017-06-03T03:37:57.549Z,17.12
2017-06-03T03:39:06.508Z,16.98
2017-06-03T03:40:15.466Z,17.12
2017-06-03T03:41:24.675Z,17.07
2017-06-03T03:42:33.631Z,17.07
2017-06-03T03:43:42.908Z,16.94
2017-06-03T03:44:51.861Z,17.03
2017-06-03T03:46:00.829Z,16.91
2017-06-03T03:47:10.036Z,17.07
2017-06-03T03:48:18.989Z,17.04
2017-06-03T03:49:27.946Z,17.08
2017-06-03T03:50:36.897Z,17.08
2017-06-03T03:51:45.856Z,17.14
2017-06-03T03:52:55.061Z,17.07
2017-06-03T03:54:04.018Z,17.07
2017-06-03T03:55:12.976Z,17.11
2017-06-03T03:56:21.930Z,17.03
2017-06-03T03:57:31.225Z,16.97
2017-06-03T03:58:40.433Z,16.94
2017-06-03T03:59:49.384Z,17.01
2017-06-03T04:00:58.340Z,16.93
2017-06-03T04:02:07.297Z,17
2017-06-03T04:03:16.281Z,16.85
2017-06-03T04:04:25.491Z,16.94
2017-06-03T04:05:34.448Z,17.03
2017-06-03T04:06:43.403Z,16.96
2017-06-03T04:07:52.361Z,16.83
2017-06-03T04:09:01.319Z,16.83
2017-06-03T04:10:10.530Z,16.83
2017-06-03T04:11:19.485Z,16.85
2017-06-03T04:12:28.446Z,16.86
2017-06-03T04:13:37.402Z,16.91
2017-06-03T04:14:46.354Z,16.89
2017-06-03T04:15:55.568Z,16.86
2017-06-03T04:17:04.530Z,16.86
2017-06-03T04:18:13.487Z,16.83
2017-06-03T04:19:22.444Z,16.89
2017-06-03T04:20:31.487Z,16.81
2017-06-03T04:21:40.694Z,16.88
2017-06-03T04:22:49.646Z,16.86
2017-06-03T04:23:58.596Z,16.91
2017-06-03T04:25:07.549Z,16.86
2017-06-03T04:26:16.510Z,16.89
2017-06-03T04:27:25.807Z,16.91
2017-06-03T04:28:34.772Z,16.86
2017-06-03T04:29:43.821Z,16.89
2017-06-03T04:30:52.772Z,16.91
2017-06-03T04:32:01.734Z,16.93
2017-06-03T04:33:11.265Z,16.98
2017-06-03T04:34:20.218Z,16.98
2017-06-03T04:35:29.175Z,16.93
2017-06-03T04:36:38.133Z,16.97
2017-06-03T04:37:47.086Z,17
2017-06-03T04:38:56.298Z,16.93
2017-06-03T04:40:05.261Z,16.94
2017-06-03T04:41:14.217Z,16.88
2017-06-03T04:42:23.502Z,16.85
2017-06-03T04:43:32.460Z,16.88
2017-06-03T04:44:41.668Z,16.97
2017-06-03T04:45:50.633Z,16.85
2017-06-03T04:46:59.591Z,16.86
2017-06-03T04:48:08.548Z,16.88
2017-06-03T04:49:17.508Z,16.86
2017-06-03T04:50:26.716Z,16.85
2017-06-03T04:51:35.672Z,16.89
2017-06-03T04:52:44.624Z,16.89
2017-06-03T04:53:53.577Z,16.97
2017-06-03T04:55:02.533Z,16.94
2017-06-03T04:56:11.745Z,16.93
2017-06-03T04:57:20.707Z,16.86
2017-06-03T04:58:29.667Z,16.85
2017-06-03T04:59:38.650Z,16.96
2017-06-03T05:00:47.608Z,16.96
2017-06-03T05:01:56.826Z,17
2017-06-03T05:03:05.787Z,17.11
2017-06-03T05:04:14.748Z,17.07
2017-06-03T05:05:23.704Z,17.14
2017-06-03T05:06:32.669Z,17.12
2017-06-03T05:07:41.877Z,17.12
2017-06-03T05:08:50.836Z,17.14
2017-06-03T05:09:59.812Z,17.28
2017-06-03T05:11:08.769Z,17.18
2017-06-03T05:12:17.729Z,17.33
2017-06-03T05:13:26.941Z,17.26
2017-06-03T05:14:35.894Z,17.31
2017-06-03T05:15:44.847Z,17.37
2017-06-03T05:16:53.808Z,17.37
2017-06-03T05:18:03.105Z,17.4
2017-06-03T05:19:12.310Z,17.31
2017-06-03T05:20:21.269Z,17.43
2017-06-03T05:21:30.251Z,17.43
2017-06-03T05:22:39.207Z,17.4
2017-06-03T05:23:48.489Z,17.44
2017-06-03T05:24:57.696Z,17.41
2017-06-03T05:26:06.975Z,17.41
2017-06-03T05:27:15.939Z,17.4
2017-06-03T05:28:25.236Z,17.52
2017-06-03T05:29:34.192Z,17.48
2017-06-03T05:30:43.404Z,17.54
2017-06-03T05:31:52.363Z,17.49
2017-06-03T05:33:01.317Z,17.58
2017-06-03T05:34:10.275Z,17.58
2017-06-03T05:35:19.244Z,17.7
2017-06-03T05:36:28.449Z,17.74
2017-06-03T05:37:37.403Z,17.63
2017-06-03T05:38:46.442Z,17.71
2017-06-03T05:39:55.400Z,17.58
2017-06-03T05:41:04.356Z,17.63
2017-06-03T05:42:13.613Z,17.77
2017-06-03T05:43:22.909Z,17.7
2017-06-03T05:44:31.949Z,17.77
2017-06-03T05:45:40.928Z,17.72
2017-06-03T05:46:49.883Z,17.75
2017-06-03T05:47:59.180Z,17.84
2017-06-03T05:49:08.226Z,17.82
2017-06-03T05:50:17.188Z,17.97
2017-06-03T05:51:26.142Z,18
2017-06-03T05:52:35.188Z,17.96
2017-06-03T05:53:44.493Z,18.07
2017-06-03T05:54:53.445Z,18.12
2017-06-03T05:56:02.402Z,18.11
2017-06-03T05:57:11.359Z,18.12
2017-06-03T05:58:20.316Z,18.2
2017-06-03T05:59:29.521Z,18.2
2017-06-03T06:00:38.472Z,18.21
2017-06-03T06:01:47.431Z,18.27
2017-06-03T06:02:56.389Z,18.25
2017-06-03T06:04:05.348Z,18.26
2017-06-03T06:05:14.562Z,18.29
2017-06-03T06:06:23.520Z,18.41
2017-06-03T06:07:32.474Z,18.41
2017-06-03T06:08:41.428Z,18.52
2017-06-03T06:09:50.390Z,18.52
2017-06-03T06:10:59.595Z,18.6
2017-06-03T06:12:08.556Z,18.57
2017-06-03T06:13:17.514Z,18.6
2017-06-03T06:14:26.497Z,18.66
2017-06-03T06:15:35.454Z,18.6
2017-06-03T06:16:44.663Z,18.67
2017-06-03T06:17:53.704Z,18.67
2017-06-03T06:19:02.656Z,18.8
2017-06-03T06:20:11.615Z,18.78
2017-06-03T06:21:20.574Z,18.73
2017-06-03T06:22:29.781Z,18.78
2017-06-03T06:23:38.738Z,18.85
2017-06-03T06:24:47.696Z,18.78
2017-06-03T06:25:56.674Z,18.84
2017-06-03T06:27:05.634Z,18.84
2017-06-03T06:28:14.888Z,18.84
2017-06-03T06:29:23.847Z,18.91
2017-06-03T06:30:32.798Z,18.91
2017-06-03T06:31:41.755Z,18.94
2017-06-03T06:32:50.714Z,18.94
2017-06-03T06:33:59.923Z,18.91
2017-06-03T06:35:08.891Z,18.92
2017-06-03T06:36:17.861Z,18.92
2017-06-03T06:37:27.164Z,18.94
2017-06-03T06:38:36.122Z,18.99
2017-06-03T06:39:45.329Z,19.02
2017-06-03T06:40:54.285Z,18.99
2017-06-03T06:42:03.246Z,18.92
2017-06-03T06:43:12.214Z,18.95
2017-06-03T06:44:21.173Z,19
2017-06-03T06:45:30.379Z,19.04
2017-06-03T06:46:39.343Z,19.13
2017-06-03T06:47:48.303Z,19.14
2017-06-03T06:48:57.257Z,19.14
2017-06-03T06:50:06.235Z,19.23
2017-06-03T06:51:15.491Z,19.31
2017-06-03T06:52:24.783Z,19.33
2017-06-03T06:53:33.740Z,19.37
2017-06-03T06:54:42.696Z,19.29
2017-06-03T06:55:51.651Z,19.41
2017-06-03T06:57:00.858Z,19.41
2017-06-03T06:58:09.817Z,19.55
2017-06-03T06:59:18.773Z,19.46
2017-06-03T07:00:27.729Z,19.55
2017-06-03T07:01:36.688Z,19.58
2017-06-03T07:02:45.896Z,19.62
2017-06-03T07:03:54.853Z,19.63
2017-06-03T07:05:03.810Z,19.56
2017-06-03T07:06:12.764Z,19.63
2017-06-03T07:07:21.725Z,19.68
2017-06-03T07:08:30.959Z,19.66
2017-06-03T07:09:39.916Z,19.78
2017-06-03T07:10:48.885Z,19.77
2017-06-03T07:11:57.845Z,19.91
2017-06-03T07:13:06.803Z,19.92
2017-06-03T07:14:16.012Z,19.87
2017-06-03T07:15:24.972Z,19.88
2017-06-03T07:16:33.933Z,19.92
2017-06-03T07:17:42.891Z,19.92
2017-06-03T07:18:51.848Z,20.05
2017-06-03T07:20:01.055Z,19.99
2017-06-03T07:21:10.016Z,20.01
2017-06-03T07:22:18.968Z,20.11
2017-06-03T07:23:27.927Z,20.2
2017-06-03T07:24:36.886Z,20.33
2017-06-03T07:25:46.092Z,20.36
2017-06-03T07:26:55.052Z,20.35
2017-06-03T07:28:04.011Z,20.41
2017-06-03T07:29:12.971Z,20.47
2017-06-03T07:30:21.928Z,20.54
2017-06-03T07:31:31.225Z,20.57
2017-06-03T07:32:40.191Z,20.57
2017-06-03T07:33:49.150Z,20.64
2017-06-03T07:34:58.112Z,20.7
2017-06-03T07:36:07.075Z,20.61
2017-06-03T07:37:16.283Z,20.62
2017-06-03T07:38:25.242Z,20.7
2017-06-03T07:39:34.197Z,20.73
2017-06-03T07:40:43.158Z,20.74
2017-06-03T07:41:52.119Z,20.84
2017-06-03T07:43:01.334Z,20.85
2017-06-03T07:44:10.295Z,20.92
2017-06-03T07:45:19.258Z,20.94
2017-06-03T07:46:28.214Z,20.87
2017-06-03T07:47:37.177Z,20.95
2017-06-03T07:48:46.415Z,20.94
2017-06-03T07:49:55.379Z,20.99
2017-06-03T07:51:04.346Z,20.97
2017-06-03T07:52:13.309Z,20.97
2017-06-03T07:53:22.360Z,21.17
2017-06-03T07:54:31.569Z,21.21
2017-06-03T07:55:40.542Z,21.14
2017-06-03T07:56:49.498Z,21.13
2017-06-03T07:57:58.462Z,21.28
2017-06-03T07:59:07.425Z,21.22
2017-06-03T08:00:16.686Z,21.29
2017-06-03T08:01:25.650Z,21.38
2017-06-03T08:02:34.934Z,21.35
2017-06-03T08:03:43.894Z,21.35
2017-06-03T08:04:52.854Z,21.38
2017-06-03T08:06:02.118Z,21.42
2017-06-03T08:07:11.082Z,21.43
2017-06-03T08:08:20.059Z,21.47
2017-06-03T08:09:29.755Z,21.53
2017-06-03T08:10:38.718Z,21.64
2017-06-03T08:11:47.938Z,21.68
2017-06-03T08:12:56.896Z,21.54
2017-06-03T08:14:05.854Z,21.71
2017-06-03T08:15:14.814Z,21.61
2017-06-03T08:16:23.865Z,21.62
2017-06-03T08:17:33.077Z,21.68
2017-06-03T08:18:42.032Z,21.84
2017-06-03T08:19:50.994Z,21.77
2017-06-03T08:20:59.956Z,21.91
2017-06-03T08:22:08.917Z,21.91
2017-06-03T08:23:18.176Z,21.9
2017-06-03T08:24:27.225Z,22.02
2017-06-03T08:25:36.185Z,22.07
2017-06-03T08:26:45.145Z,22.09
2017-06-03T08:27:54.103Z,22.15
2017-06-03T08:29:03.315Z,22.24
2017-06-03T08:30:12.282Z,22.33
2017-06-03T08:31:21.244Z,22.35
2017-06-03T08:32:30.206Z,22.33
2017-06-03T08:33:39.170Z,22.46
2017-06-03T08:34:48.383Z,22.42
2017-06-03T08:35:57.344Z,22.47
2017-06-03T08:37:06.308Z,22.54
2017-06-03T08:38:15.267Z,22.54
2017-06-03T08:39:24.226Z,22.61
2017-06-03T08:40:33.435Z,22.6
2017-06-03T08:41:42.391Z,22.58
2017-06-03T08:42:51.349Z,22.75
2017-06-03T08:44:00.316Z,22.73
2017-06-03T08:45:09.275Z,22.79
2017-06-03T08:46:18.491Z,22.68
2017-06-03T08:47:27.450Z,22.8
2017-06-03T08:48:36.407Z,22.97
2017-06-03T08:49:45.368Z,23.04
2017-06-03T08:50:54.331Z,23.12
2017-06-03T08:52:03.593Z,23.28
2017-06-03T08:53:12.673Z,23.32
2017-06-03T08:54:21.637Z,23.28
2017-06-03T08:55:30.596Z,23.38
2017-06-03T08:56:39.551Z,23.32
2017-06-03T08:57:48.765Z,23.39
2017-06-03T08:58:57.725Z,23.4
2017-06-03T09:00:06.691Z,23.58
2017-06-03T09:01:15.654Z,23.6
2017-06-03T09:02:24.615Z,23.61
2017-06-03T09:03:33.876Z,23.7
2017-06-03T09:04:42.833Z,23.69
2017-06-03T09:05:51.798Z,23.7
2017-06-03T09:07:00.760Z,23.8
2017-06-03T09:08:09.726Z,23.73
2017-06-03T09:09:18.932Z,23.76
2017-06-03T09:10:27.899Z,23.73
2017-06-03T09:11:37.031Z,23.76
2017-06-03T09:12:45.988Z,23.69
2017-06-03T09:13:54.948Z,23.61
2017-06-03T09:15:04.161Z,23.6
2017-06-03T09:16:13.121Z,23.46
2017-06-03T09:17:22.090Z,23.5
2017-06-03T09:18:31.054Z,23.5
2017-06-03T09:19:40.014Z,23.54
2017-06-03T09:20:49.638Z,23.57
2017-06-03T09:21:58.603Z,23.55
2017-06-03T09:23:07.559Z,23.54
2017-06-03T09:24:16.523Z,23.63
2017-06-03T09:25:25.485Z,23.58
2017-06-03T09:26:34.699Z,23.63
2017-06-03T09:27:43.659Z,23.54
2017-06-03T09:28:52.618Z,23.63
2017-06-03T09:30:01.577Z,23.55
2017-06-03T09:31:10.537Z,23.61
2017-06-03T09:32:19.751Z,23.51
2017-06-03T09:33:28.714Z,23.51
2017-06-03T09:34:37.677Z,23.36
2017-06-03T09:35:46.641Z,23.35
2017-06-03T09:36:55.605Z,23.27
2017-06-03T09:38:04.819Z,23.16
2017-06-03T09:39:13.786Z,23.19
2017-06-03T09:40:22.743Z,23.02
2017-06-03T09:41:31.701Z,23.07
2017-06-03T09:42:40.657Z,22.91
2017-06-03T09:43:49.869Z,23
2017-06-03T09:44:58.842Z,22.95
2017-06-03T09:46:07.810Z,22.88
2017-06-03T09:47:16.774Z,22.83
2017-06-03T09:48:25.731Z,22.73
2017-06-03T09:49:35.032Z,22.65
2017-06-03T09:50:43.996Z,22.77
2017-06-03T09:51:52.959Z,22.77
2017-06-03T09:53:01.920Z,22.64
2017-06-03T09:54:10.888Z,22.67
2017-06-03T09:55:20.119Z,22.61
2017-06-03T09:56:29.405Z,22.61
2017-06-03T09:57:38.363Z,22.6
2017-06-03T09:58:47.323Z,22.57
2017-06-03T09:59:56.284Z,22.47
2017-06-03T10:01:05.497Z,22.42
2017-06-03T10:02:14.780Z,22.49
2017-06-03T10:03:23.740Z,22.43
2017-06-03T10:04:32.724Z,22.47
2017-06-03T10:05:41.684Z,22.46
2017-06-03T10:06:50.895Z,22.46
2017-06-03T10:07:59.860Z,22.45
2017-06-03T10:09:08.826Z,22.54
2017-06-03T10:10:17.788Z,22.51
2017-06-03T10:11:26.749Z,22.55
2017-06-03T10:12:35.961Z,22.57
2017-06-03T10:13:44.924Z,22.55
2017-06-03T10:14:53.884Z,22.57
2017-06-03T10:16:02.843Z,22.57
2017-06-03T10:17:11.800Z,22.58
2017-06-03T10:18:21.013Z,22.6
2017-06-03T10:19:29.982Z,22.62
2017-06-03T10:20:38.949Z,22.61
2017-06-03T10:21:47.913Z,22.58
2017-06-03T10:22:56.875Z,22.57
2017-06-03T10:24:06.182Z,22.62
2017-06-03T10:25:15.229Z,22.61
2017-06-03T10:26:24.195Z,22.72
2017-06-03T10:27:33.156Z,22.73
2017-06-03T10:28:42.115Z,22.67
2017-06-03T10:29:51.329Z,22.75
2017-06-03T10:31:00.294Z,22.77
2017-06-03T10:32:09.258Z,22.7
2017-06-03T10:33:18.220Z,22.76
2017-06-03T10:34:27.180Z,22.76
2017-06-03T10:35:36.396Z,22.68
2017-06-03T10:36:45.357Z,22.75
2017-06-03T10:37:54.324Z,22.77
2017-06-03T10:39:03.373Z,22.7
2017-06-03T10:40:12.346Z,22.79
2017-06-03T10:41:21.560Z,22.76
2017-06-03T10:42:30.615Z,22.72
2017-06-03T10:43:39.575Z,22.75
2017-06-03T10:44:48.543Z,22.62
2017-06-03T10:45:57.505Z,22.57
2017-06-03T10:47:06.735Z,22.62
2017-06-03T10:48:15.704Z,22.54
2017-06-03T10:49:25.004Z,22.57
2017-06-03T10:50:33.963Z,22.46
2017-06-03T10:51:42.923Z,22.45
2017-06-03T10:52:52.189Z,22.33
2017-06-03T10:54:01.151Z,22.27
2017-06-03T10:55:10.114Z,22.14
2017-06-03T10:56:19.080Z,22.17
2017-06-03T10:57:28.045Z,22.1
2017-06-03T10:58:37.262Z,22.02
2017-06-03T10:59:46.223Z,21.96
2017-06-03T11:00:55.189Z,21.9
2017-06-03T11:02:04.147Z,21.75
2017-06-03T11:03:13.109Z,21.62
2017-06-03T11:04:22.318Z,21.52
2017-06-03T11:05:31.285Z,21.35
2017-06-03T11:06:40.243Z,21.21
2017-06-03T11:07:49.211Z,21.13
2017-06-03T11:08:58.170Z,20.97
2017-06-03T11:10:07.387Z,20.98
2017-06-03T11:11:16.353Z,20.76
2017-06-03T11:12:25.316Z,20.58
2017-06-03T11:13:34.280Z,20.47
2017-06-03T11:14:43.244Z,20.32
2017-06-03T11:15:52.460Z,20.1
2017-06-03T11:17:01.509Z,20.05
2017-06-03T11:18:10.467Z,20.03
2017-06-03T11:19:19.428Z,19.87
2017-06-03T11:20:28.477Z,19.77
2017-06-03T11:21:37.762Z,19.78
2017-06-03T11:22:46.727Z,19.68
2017-06-03T11:23:55.687Z,19.61
2017-06-03T11:25:04.652Z,19.59
2017-06-03T11:26:13.609Z,19.58
2017-06-03T11:27:22.819Z,19.54
2017-06-03T11:28:31.776Z,19.48
2017-06-03T11:29:40.735Z,19.46
2017-06-03T11:30:49.695Z,19.47
2017-06-03T11:31:58.745Z,19.39
2017-06-03T11:33:07.955Z,19.29
2017-06-03T11:34:16.909Z,19.37
2017-06-03T11:35:25.866Z,19.32
2017-06-03T11:36:34.827Z,19.25
2017-06-03T11:37:43.791Z,19.31
2017-06-03T11:38:53.009Z,19.25
2017-06-03T11:40:01.965Z,19.29
2017-06-03T11:41:10.926Z,19.19
2017-06-03T11:42:19.886Z,19.25
2017-06-03T11:43:28.844Z,19.23
2017-06-03T11:44:38.051Z,19.26
2017-06-03T11:45:47.010Z,19.16
2017-06-03T11:46:55.969Z,19.16
2017-06-03T11:48:04.931Z,19.22
2017-06-03T11:49:13.894Z,19.18
2017-06-03T11:50:23.650Z,19.1
2017-06-03T11:51:32.615Z,19.11
2017-06-03T11:52:41.750Z,19.02
2017-06-03T11:53:50.720Z,18.95
2017-06-03T11:54:59.678Z,18.99
2017-06-03T11:56:08.978Z,19
2017-06-03T11:57:17.941Z,19.06
2017-06-03T11:58:27.238Z,19
2017-06-03T11:59:36.196Z,18.95
2017-06-03T12:00:45.156Z,18.99
2017-06-03T12:01:54.367Z,18.94
2017-06-03T12:03:03.329Z,18.92
2017-06-03T12:04:12.291Z,18.95
2017-06-03T12:05:21.257Z,18.99
2017-06-03T12:06:30.302Z,18.99
2017-06-03T12:07:39.562Z,19.02
2017-06-03T12:08:48.518Z,18.94
2017-06-03T12:09:57.479Z,18.87
2017-06-03T12:11:06.434Z,18.8
2017-06-03T12:12:15.390Z,18.8
2017-06-03T12:13:24.597Z,18.7
2017-06-03T12:14:33.558Z,18.78
2017-06-03T12:15:42.514Z,18.76
2017-06-03T12:16:51.472Z,18.78
2017-06-03T12:18:00.432Z,18.81
2017-06-03T12:19:09.646Z,18.87
2017-06-03T12:20:18.689Z,18.8
2017-06-03T12:21:27.653Z,18.82
2017-06-03T12:22:36.611Z,18.82
2017-06-03T12:23:45.567Z,18.8
2017-06-03T12:24:54.774Z,18.75
2017-06-03T12:26:03.741Z,18.81
2017-06-03T12:27:12.702Z,18.75
2017-06-03T12:28:21.664Z,18.75
2017-06-03T12:29:30.621Z,18.66
2017-06-03T12:30:39.886Z,18.57
2017-06-03T12:31:48.841Z,18.69
2017-06-03T12:32:57.800Z,18.55
2017-06-03T12:34:06.772Z,18.6
2017-06-03T12:35:15.729Z,18.65
2017-06-03T12:36:24.936Z,18.73
2017-06-03T12:37:33.889Z,18.65
2017-06-03T12:38:42.931Z,18.6
2017-06-03T12:39:51.982Z,18.57
2017-06-03T12:41:01.025Z,18.65
2017-06-03T12:42:10.413Z,18.6
2017-06-03T12:43:19.379Z,18.58
2017-06-03T12:44:28.335Z,18.6
2017-06-03T12:45:37.331Z,18.6
2017-06-03T12:46:46.289Z,18.57
2017-06-03T12:47:55.581Z,18.58
2017-06-03T12:49:04.549Z,18.51
2017-06-03T12:50:13.512Z,18.45
2017-06-03T12:51:22.802Z,18.5
2017-06-03T12:52:31.761Z,18.45
2017-06-03T12:53:40.997Z,18.47
2017-06-03T12:54:49.958Z,18.42
2017-06-03T12:55:58.918Z,18.48
2017-06-03T12:57:07.879Z,18.33
2017-06-03T12:58:16.921Z,18.39
2017-06-03T12:59:26.130Z,18.41
2017-06-03T13:00:35.092Z,18.41
2017-06-03T13:01:44.052Z,18.45
2017-06-03T13:02:53.010Z,18.5
2017-06-03T13:04:01.968Z,18.48
2017-06-03T13:05:11.356Z,18.47
2017-06-03T13:06:20.641Z,18.48
2017-06-03T13:07:29.600Z,18.42
2017-06-03T13:08:38.566Z,18.5
2017-06-03T13:09:47.529Z,18.52
2017-06-03T13:10:56.787Z,18.41
2017-06-03T13:12:05.746Z,18.35
2017-06-03T13:13:14.711Z,18.41
2017-06-03T13:14:23.668Z,18.27
2017-06-03T13:15:32.652Z,18.36
2017-06-03T13:16:41.863Z,18.35
2017-06-03T13:17:50.818Z,18.45
2017-06-03T13:18:59.777Z,18.42
2017-06-03T13:20:08.735Z,18.42
2017-06-03T13:21:17.695Z,18.39
2017-06-03T13:22:26.905Z,18.33
2017-06-03T13:23:35.864Z,18.42
2017-06-03T13:24:44.820Z,18.41
2017-06-03T13:25:53.770Z,18.42
2017-06-03T13:27:02.823Z,18.41
2017-06-03T13:28:12.085Z,18.37
2017-06-03T13:29:21.051Z,18.27
2017-06-03T13:30:30.007Z,18.23
2017-06-03T13:31:38.965Z,18.26
2017-06-03T13:32:47.921Z,18.2
2017-06-03T13:33:57.126Z,18.21
2017-06-03T13:35:06.093Z,18.29
2017-06-03T13:36:15.139Z,18.21
2017-06-03T13:37:24.104Z,18.21
2017-06-03T13:38:33.063Z,18.08
2017-06-03T13:39:42.269Z,18.14
2017-06-03T13:40:51.229Z,18.17
2017-06-03T13:42:00.184Z,18.12
2017-06-03T13:43:09.467Z,18.11
2017-06-03T13:44:18.427Z,18.12
2017-06-03T13:45:27.635Z,18.11
2017-06-03T13:46:36.619Z,18.15
2017-06-03T13:47:45.571Z,18.07
2017-06-03T13:48:54.536Z,18.1
2017-06-03T13:50:03.515Z,18.1
2017-06-03T13:51:12.732Z,18.03
2017-06-03T13:52:21.692Z,17.96
2017-06-03T13:53:30.658Z,17.87
2017-06-03T13:54:39.945Z,17.95
2017-06-03T13:55:48.907Z,17.97
2017-06-03T13:56:58.116Z,17.93
2017-06-03T13:58:07.072Z,17.93
2017-06-03T13:59:16.032Z,17.81
2017-06-03T14:00:24.994Z,17.84
2017-06-03T14:01:33.955Z,17.86
2017-06-03T14:02:43.163Z,17.86
2017-06-03T14:03:52.147Z,17.86
2017-06-03T14:05:01.109Z,17.75
2017-06-03T14:06:10.089Z,17.81
2017-06-03T14:07:19.052Z,17.82
2017-06-03T14:08:28.349Z,17.86
2017-06-03T14:09:37.309Z,17.93
2017-06-03T14:10:46.267Z,18.02
2017-06-03T14:11:55.549Z,18.02
2017-06-03T14:13:04.541Z,17.97
2017-06-03T14:14:13.746Z,17.99
2017-06-03T14:15:22.697Z,18.03
2017-06-03T14:16:31.653Z,17.99
2017-06-03T14:17:40.611Z,18.02
2017-06-03T14:18:49.573Z,18.03
2017-06-03T14:19:58.782Z,18.07
2017-06-03T14:21:07.741Z,18
2017-06-03T14:22:16.707Z,18.1
2017-06-03T14:23:25.662Z,18.1
2017-06-03T14:24:34.621Z,18.11
2017-06-03T14:25:43.830Z,18.08
2017-06-03T14:26:53.109Z,18.08
2017-06-03T14:28:02.068Z,18.12
2017-06-03T14:29:11.024Z,18.17
2017-06-03T14:30:19.986Z,18.11
2017-06-03T14:31:29.192Z,18.15
2017-06-03T14:32:38.149Z,18.29
2017-06-03T14:33:47.110Z,18.3
2017-06-03T14:34:56.067Z,18.25
2017-06-03T14:36:05.121Z,18.15
2017-06-03T14:37:14.332Z,18.12
2017-06-03T14:38:23.290Z,18.18
2017-06-03T14:39:32.248Z,18.27
2017-06-03T14:40:41.204Z,18.25
2017-06-03T14:41:50.167Z,18.15
2017-06-03T14:42:59.376Z,18.27
2017-06-03T14:44:08.335Z,18.21
2017-06-03T14:45:17.290Z,18.21
2017-06-03T14:46:26.246Z,18.29
2017-06-03T14:47:35.207Z,18.25
2017-06-03T14:48:44.551Z,18.27
2017-06-03T14:49:53.507Z,18.36
2017-06-03T14:51:02.471Z,18.36
2017-06-03T14:52:11.430Z,18.41
2017-06-03T14:53:20.385Z,18.42